KTTA

Details ICAO KTTA
Name SANFORD LEE CO RGNL
Region United States
Timezone America/New_York (UTC-5.0)
Plans Departing 8
Arriving 3
Stats Elevation 247 ft / 75 m (AMSL)
Location 35.582358° -79.101361°
Runways 1
Magnetic Variation 8.935° W
Sunrise 2017-12-14 12:19:28 UTC / 2017-12-14 07:19:28 Local
Sunset 2017-12-14 22:05:43 UTC / 2017-12-14 17:05:43 Local
Advertisement - Login to hide

Runways

ID Width Length Bearing (true) Bearing (mag) Surface Threshold Offset Overrun Length
03 100 ft / 30 m 6,583 ft / 2,007 m 20.52° 29.46° Asphalt 0 ft / 0 m 0 ft / 0 m
21 100 ft / 30 m 6,583 ft / 2,007 m 200.53° 209.47° Asphalt 0 ft / 0 m 0 ft / 0 m

Approach Navaids

Runway Type Ident Frequency Range Bearing (true) Bearing (mag) Slope Elevation
03 Localiser ITTA 110.75 MHz 18 nm / 33 km 20.53° 29.46° - 247 ft / 75 m (AMSL)
03 Glidescope ITTA 110.75 MHz 10 nm / 19 km 20.53° 29.46° 3.00° 247 ft / 75 m (AMSL)
03 DME ITTA 110.75 MHz 18 nm / 33 km - - - 247 ft / 75 m (AMSL)

Map

Weather


0- 5 10 15 20 25 30 35+ Temperature / ° C

Clouds and Precipitation
Forecast for 2017-12-14 18:00 UTC. Updated 23 minutes ago

Ground ~20,000 ft ~40,000 ft Winds

METAR

KTTA 141530Z AUTO 28005KT 10SM CLR 08/M04 A2986 RMK AO2 T00761044

TAF

Not found

Frequencies

Recorded 120.62 MHz AWOS 3
Clearance 135.07 MHz RALEIGH CLNC DEL
Unicom 123.07 MHz CTAF/UNICOM
Approach 125.30 MHz RALEIGH APP DEP
Warning: Do not use this data for real-world aviation or navigation. No guarantee of current accuracy is given.